Enter the Airport ICAO Code

Search by Airport or City

Current Weather

LEMD | Adolfo Suárez Madrid–Barajas Airport

Madrid, Spain

Last Update 33 Minutes Ago

Clear Sky

Temperature of 05 ºC

Light Winds from South

Temperature

05 ºC

Dew Point Temperature

02 ºC Below Zero

Relative Humidity

60.51 %

Wind Direction

South (160º, Without Significant Variations)

Wind Velocity

4 km/h (02 kt)

Gusts

None

Visibility

No Significant Reductions

Sea Level Pressure

1018 hPa (Hectopascals)

Layers of Clouds

None

METAR LEMD 022200Z 16002KT CAVOK 05/M02 Q1018 NOSIG

Weather Forecast

LEMD | Adolfo Suárez Madrid–Barajas Airport

Madrid, Spain

Forecast valid for the next 25 Hours

From now on it is expected:

Clear Sky

Light to Moderate Winds from Variable Directions

In 12 to 14 hours it is expected the begining of:

Moderate Winds from SouthWest

Maximum Temperature

09 ºC in 17 Hours

Minimum Temperature

02 ºC Below Zero in 7 Hours

TAF LEMD 021700Z 0218/0324 VRB05KT CAVOK TX09/0316Z TNM02/0306Z PROB40 TEMPO 0218/0223 01010KT BECMG 0311/0313 24010KT